sensor_id;sensor_type;location;lat;lon;timestamp;temperature;humidity
20827;DHT22;10574;52.508;13.236;2022-08-19T00:01:55;21.00;99.90
20827;DHT22;10574;52.508;13.236;2022-08-19T00:04:26;21.10;99.90
20827;DHT22;10574;52.508;13.236;2022-08-19T00:06:54;21.10;99.90
20827;DHT22;10574;52.508;13.236;2022-08-19T00:09:23;21.00;99.90
20827;DHT22;10574;52.508;13.236;2022-08-19T00:11:52;21.10;99.90
20827;DHT22;10574;52.508;13.236;2022-08-19T00:14:22;21.10;99.90
20827;DHT22;10574;52.508;13.236;2022-08-19T00:16:51;21.10;99.90
20827;DHT22;10574;52.508;13.236;2022-08-19T00:19:21;21.20;99.90
20827;DHT22;10574;52.508;13.236;2022-08-19T00:21:49;21.20;99.90
20827;DHT22;10574;52.508;13.236;2022-08-19T00:24:18;21.20;99.90
20827;DHT22;10574;52.508;13.236;2022-08-19T00:26:46;21.20;99.90
20827;DHT22;10574;52.508;13.236;2022-08-19T00:29:15;21.10;99.90
20827;DHT22;10574;52.508;13.236;2022-08-19T00:31:44;21.10;99.90
20827;DHT22;10574;52.508;13.236;2022-08-19T00:34:13;21.10;99.90
20827;DHT22;10574;52.508;13.236;2022-08-19T00:36:42;21.10;99.90
20827;DHT22;10574;52.508;13.236;2022-08-19T00:39:11;21.00;99.90
20827;DHT22;10574;52.508;13.236;2022-08-19T00:41:40;21.10;99.90
20827;DHT22;10574;52.508;13.236;2022-08-19T00:44:23;21.10;99.90
20827;DHT22;10574;52.508;13.236;2022-08-19T00:46:49;21.00;99.90
20827;DHT22;10574;52.508;13.236;2022-08-19T00:49:29;21.10;99.90
20827;DHT22;10574;52.508;13.236;2022-08-19T00:52:04;21.10;99.90
20827;DHT22;10574;52.508;13.236;2022-08-19T00:54:31;21.10;99.90
20827;DHT22;10574;52.508;13.236;2022-08-19T00:57:00;21.00;99.90
20827;DHT22;10574;52.508;13.236;2022-08-19T00:59:29;21.00;99.90
20827;DHT22;10574;52.508;13.236;2022-08-19T01:01:57;20.90;99.90
20827;DHT22;10574;52.508;13.236;2022-08-19T01:04:25;20.90;99.90
20827;DHT22;10574;52.508;13.236;2022-08-19T01:06:53;20.90;99.90
20827;DHT22;10574;52.508;13.236;2022-08-19T01:09:20;20.90;99.90
20827;DHT22;10574;52.508;13.236;2022-08-19T01:11:48;20.90;99.90
20827;DHT22;10574;52.508;13.236;2022-08-19T01:14:16;20.90;99.90
20827;DHT22;10574;52.508;13.236;2022-08-19T01:16:44;20.90;99.90
20827;DHT22;10574;52.508;13.236;2022-08-19T01:19:27;21.00;99.90
20827;DHT22;10574;52.508;13.236;2022-08-19T01:21:59;21.00;99.90
20827;DHT22;10574;52.508;13.236;2022-08-19T01:24:26;21.00;99.90
20827;DHT22;10574;52.508;13.236;2022-08-19T01:26:54;20.90;99.90
20827;DHT22;10574;52.508;13.236;2022-08-19T01:29:22;20.80;99.90
20827;DHT22;10574;52.508;13.236;2022-08-19T01:31:50;20.90;99.90
20827;DHT22;10574;52.508;13.236;2022-08-19T01:34:19;20.90;99.90
20827;DHT22;10574;52.508;13.236;2022-08-19T01:36:48;21.00;99.90
20827;DHT22;10574;52.508;13.236;2022-08-19T01:39:19;21.00;99.90
20827;DHT22;10574;52.508;13.236;2022-08-19T01:41:47;21.00;99.90
20827;DHT22;10574;52.508;13.236;2022-08-19T01:44:15;21.00;99.90
20827;DHT22;10574;52.508;13.236;2022-08-19T01:46:44;20.90;99.90
20827;DHT22;10574;52.508;13.236;2022-08-19T01:49:14;20.90;99.90
20827;DHT22;10574;52.508;13.236;2022-08-19T01:51:42;20.90;99.90
20827;DHT22;10574;52.508;13.236;2022-08-19T01:54:12;20.90;99.90
20827;DHT22;10574;52.508;13.236;2022-08-19T01:56:39;20.90;99.90
20827;DHT22;10574;52.508;13.236;2022-08-19T01:59:14;20.90;99.90
20827;DHT22;10574;52.508;13.236;2022-08-19T02:01:38;20.90;99.90
20827;DHT22;10574;52.508;13.236;2022-08-19T02:04:06;20.90;99.90
20827;DHT22;10574;52.508;13.236;2022-08-19T02:06:34;20.90;99.90
20827;DHT22;10574;52.508;13.236;2022-08-19T02:09:04;20.80;99.90
20827;DHT22;10574;52.508;13.236;2022-08-19T02:11:33;20.70;99.90
20827;DHT22;10574;52.508;13.236;2022-08-19T02:14:04;20.70;99.90
20827;DHT22;10574;52.508;13.236;2022-08-19T02:16:33;20.60;99.90
20827;DHT22;10574;52.508;13.236;2022-08-19T02:19:00;20.50;99.90
20827;DHT22;10574;52.508;13.236;2022-08-19T02:21:29;20.50;99.90
20827;DHT22;10574;52.508;13.236;2022-08-19T02:23:57;20.50;99.90
20827;DHT22;10574;52.508;13.236;2022-08-19T02:26:25;20.50;99.90
20827;DHT22;10574;52.508;13.236;2022-08-19T02:28:54;20.50;99.90
20827;DHT22;10574;52.508;13.236;2022-08-19T02:31:23;20.40;99.90
20827;DHT22;10574;52.508;13.236;2022-08-19T02:33:52;20.30;99.90
20827;DHT22;10574;52.508;13.236;2022-08-19T02:36:20;20.30;99.90
20827;DHT22;10574;52.508;13.236;2022-08-19T02:38:47;20.20;99.90
20827;DHT22;10574;52.508;13.236;2022-08-19T02:41:21;20.20;99.90
20827;DHT22;10574;52.508;13.236;2022-08-19T02:43:49;20.10;99.90
20827;DHT22;10574;52.508;13.236;2022-08-19T02:46:19;20.10;99.90
20827;DHT22;10574;52.508;13.236;2022-08-19T02:48:55;20.10;99.90
20827;DHT22;10574;52.508;13.236;2022-08-19T02:51:23;20.10;99.90
20827;DHT22;10574;52.508;13.236;2022-08-19T02:53:51;20.10;99.90
20827;DHT22;10574;52.508;13.236;2022-08-19T02:56:19;20.10;99.90
20827;DHT22;10574;52.508;13.236;2022-08-19T02:58:48;20.10;99.90
20827;DHT22;10574;52.508;13.236;2022-08-19T03:01:28;20.10;99.90
20827;DHT22;10574;52.508;13.236;2022-08-19T03:03:56;20.10;99.90
20827;DHT22;10574;52.508;13.236;2022-08-19T03:06:24;20.10;99.90
20827;DHT22;10574;52.508;13.236;2022-08-19T03:08:52;20.10;99.90
20827;DHT22;10574;52.508;13.236;2022-08-19T03:11:23;20.10;99.90
20827;DHT22;10574;52.508;13.236;2022-08-19T03:13:52;20.10;99.90
20827;DHT22;10574;52.508;13.236;2022-08-19T03:16:23;20.10;99.90
20827;DHT22;10574;52.508;13.236;2022-08-19T03:18:52;20.10;99.90
20827;DHT22;10574;52.508;13.236;2022-08-19T03:21:25;20.20;99.90
20827;DHT22;10574;52.508;13.236;2022-08-19T03:24:02;20.20;99.90
20827;DHT22;10574;52.508;13.236;2022-08-19T03:26:30;20.20;99.90
20827;DHT22;10574;52.508;13.236;2022-08-19T03:29:00;20.10;99.90
20827;DHT22;10574;52.508;13.236;2022-08-19T03:31:27;20.10;99.90
20827;DHT22;10574;52.508;13.236;2022-08-19T03:33:55;20.20;99.90
20827;DHT22;10574;52.508;13.236;2022-08-19T03:36:25;20.20;99.90
20827;DHT22;10574;52.508;13.236;2022-08-19T03:38:57;20.20;99.90
20827;DHT22;10574;52.508;13.236;2022-08-19T03:41:31;20.30;99.90
20827;DHT22;10574;52.508;13.236;2022-08-19T03:43:54;20.20;99.90
20827;DHT22;10574;52.508;13.236;2022-08-19T03:46:25;20.20;99.90
20827;DHT22;10574;52.508;13.236;2022-08-19T03:48:57;20.10;99.90
20827;DHT22;10574;52.508;13.236;2022-08-19T03:51:33;20.10;99.90
20827;DHT22;10574;52.508;13.236;2022-08-19T03:54:03;20.00;99.90
20827;DHT22;10574;52.508;13.236;2022-08-19T03:56:32;20.00;99.90
20827;DHT22;10574;52.508;13.236;2022-08-19T03:59:01;20.00;99.90
20827;DHT22;10574;52.508;13.236;2022-08-19T04:01:29;20.10;99.90
20827;DHT22;10574;52.508;13.236;2022-08-19T04:03:59;20.00;99.90
20827;DHT22;10574;52.508;13.236;2022-08-19T04:06:30;20.00;99.90
20827;DHT22;10574;52.508;13.236;2022-08-19T04:09:00;20.00;99.90
20827;DHT22;10574;52.508;13.236;2022-08-19T04:11:38;20.10;99.90
20827;DHT22;10574;52.508;13.236;2022-08-19T04:14:06;19.90;99.90
20827;DHT22;10574;52.508;13.236;2022-08-19T04:16:36;19.90;99.90
20827;DHT22;10574;52.508;13.236;2022-08-19T04:19:04;20.00;99.90
20827;DHT22;10574;52.508;13.236;2022-08-19T04:21:33;20.00;99.90
20827;DHT22;10574;52.508;13.236;2022-08-19T04:24:01;20.00;99.90
20827;DHT22;10574;52.508;13.236;2022-08-19T04:26:50;20.00;99.90
20827;DHT22;10574;52.508;13.236;2022-08-19T04:29:20;20.00;99.90
20827;DHT22;10574;52.508;13.236;2022-08-19T04:31:50;19.90;99.90
20827;DHT22;10574;52.508;13.236;2022-08-19T04:34:21;19.90;99.90
20827;DHT22;10574;52.508;13.236;2022-08-19T04:36:50;19.80;99.90
20827;DHT22;10574;52.508;13.236;2022-08-19T04:39:22;19.90;99.90
20827;DHT22;10574;52.508;13.236;2022-08-19T04:41:50;19.90;99.90
20827;DHT22;10574;52.508;13.236;2022-08-19T04:44:36;19.90;99.90
20827;DHT22;10574;52.508;13.236;2022-08-19T04:47:03;19.90;99.90
20827;DHT22;10574;52.508;13.236;2022-08-19T04:49:33;20.00;99.90
20827;DHT22;10574;52.508;13.236;2022-08-19T04:52:00;20.00;99.90
20827;DHT22;10574;52.508;13.236;2022-08-19T04:54:28;20.00;99.90
20827;DHT22;10574;52.508;13.236;2022-08-19T04:56:56;20.00;99.90
20827;DHT22;10574;52.508;13.236;2022-08-19T04:59:24;20.00;99.90
20827;DHT22;10574;52.508;13.236;2022-08-19T05:01:51;20.10;99.90
20827;DHT22;10574;52.508;13.236;2022-08-19T05:04:20;20.00;99.90
20827;DHT22;10574;52.508;13.236;2022-08-19T05:06:48;20.00;99.90
20827;DHT22;10574;52.508;13.236;2022-08-19T05:09:17;20.00;99.90
20827;DHT22;10574;52.508;13.236;2022-08-19T05:11:45;20.10;99.90
20827;DHT22;10574;52.508;13.236;2022-08-19T05:14:13;20.20;99.90
20827;DHT22;10574;52.508;13.236;2022-08-19T05:16:41;20.40;99.90
20827;DHT22;10574;52.508;13.236;2022-08-19T05:19:09;20.70;99.90
20827;DHT22;10574;52.508;13.236;2022-08-19T05:21:54;20.90;99.90
20827;DHT22;10574;52.508;13.236;2022-08-19T05:24:40;21.10;99.90
20827;DHT22;10574;52.508;13.236;2022-08-19T05:27:07;21.30;99.90
20827;DHT22;10574;52.508;13.236;2022-08-19T05:29:35;21.40;99.90
20827;DHT22;10574;52.508;13.236;2022-08-19T05:32:05;21.40;99.90
20827;DHT22;10574;52.508;13.236;2022-08-19T05:34:34;21.40;99.90
20827;DHT22;10574;52.508;13.236;2022-08-19T05:37:05;21.40;99.90
20827;DHT22;10574;52.508;13.236;2022-08-19T05:39:35;21.40;99.90
20827;DHT22;10574;52.508;13.236;2022-08-19T05:42:11;21.40;99.90
20827;DHT22;10574;52.508;13.236;2022-08-19T05:44:41;21.30;99.90
20827;DHT22;10574;52.508;13.236;2022-08-19T05:47:06;21.40;99.90
20827;DHT22;10574;52.508;13.236;2022-08-19T05:49:35;21.50;99.90
20827;DHT22;10574;52.508;13.236;2022-08-19T05:52:09;21.90;99.90
20827;DHT22;10574;52.508;13.236;2022-08-19T05:54:39;22.00;99.90
20827;DHT22;10574;52.508;13.236;2022-08-19T05:57:08;22.60;99.90
20827;DHT22;10574;52.508;13.236;2022-08-19T05:59:36;23.10;99.90
20827;DHT22;10574;52.508;13.236;2022-08-19T06:02:05;23.20;99.90
20827;DHT22;10574;52.508;13.236;2022-08-19T06:04:33;22.90;99.90
20827;DHT22;10574;52.508;13.236;2022-08-19T06:07:01;22.50;99.90
20827;DHT22;10574;52.508;13.236;2022-08-19T06:09:30;22.30;99.90
20827;DHT22;10574;52.508;13.236;2022-08-19T06:11:58;22.10;99.90
20827;DHT22;10574;52.508;13.236;2022-08-19T06:14:29;21.90;99.90
20827;DHT22;10574;52.508;13.236;2022-08-19T06:16:58;21.90;99.90
20827;DHT22;10574;52.508;13.236;2022-08-19T06:19:29;21.70;99.90
20827;DHT22;10574;52.508;13.236;2022-08-19T06:21:58;21.70;99.90
20827;DHT22;10574;52.508;13.236;2022-08-19T06:24:28;22.10;99.90
20827;DHT22;10574;52.508;13.236;2022-08-19T06:26:58;22.40;99.90
20827;DHT22;10574;52.508;13.236;2022-08-19T06:29:26;22.40;99.90
20827;DHT22;10574;52.508;13.236;2022-08-19T06:31:56;22.50;99.90
20827;DHT22;10574;52.508;13.236;2022-08-19T06:34:24;22.30;99.90
20827;DHT22;10574;52.508;13.236;2022-08-19T06:36:54;22.20;99.90
20827;DHT22;10574;52.508;13.236;2022-08-19T06:39:26;22.00;99.90
20827;DHT22;10574;52.508;13.236;2022-08-19T06:41:56;21.90;99.90
20827;DHT22;10574;52.508;13.236;2022-08-19T06:44:26;21.90;99.90
20827;DHT22;10574;52.508;13.236;2022-08-19T06:46:55;21.80;99.90
20827;DHT22;10574;52.508;13.236;2022-08-19T06:49:23;21.80;99.90
20827;DHT22;10574;52.508;13.236;2022-08-19T06:51:53;21.80;99.90
20827;DHT22;10574;52.508;13.236;2022-08-19T06:54:22;21.80;99.90
20827;DHT22;10574;52.508;13.236;2022-08-19T06:56:51;21.80;99.90
20827;DHT22;10574;52.508;13.236;2022-08-19T06:59:20;21.80;99.90
20827;DHT22;10574;52.508;13.236;2022-08-19T07:01:51;21.80;99.90
20827;DHT22;10574;52.508;13.236;2022-08-19T07:04:21;21.80;99.90
20827;DHT22;10574;52.508;13.236;2022-08-19T07:06:56;21.80;99.90
20827;DHT22;10574;52.508;13.236;2022-08-19T07:09:20;21.90;99.90
20827;DHT22;10574;52.508;13.236;2022-08-19T07:11:52;21.90;99.90
20827;DHT22;10574;52.508;13.236;2022-08-19T07:14:22;21.80;99.90
20827;DHT22;10574;52.508;13.236;2022-08-19T07:16:53;21.80;99.90
20827;DHT22;10574;52.508;13.236;2022-08-19T07:19:23;21.80;99.90
20827;DHT22;10574;52.508;13.236;2022-08-19T07:21:51;21.80;99.90
20827;DHT22;10574;52.508;13.236;2022-08-19T07:24:21;21.80;99.90
20827;DHT22;10574;52.508;13.236;2022-08-19T07:26:51;21.80;99.90
20827;DHT22;10574;52.508;13.236;2022-08-19T07:29:20;21.80;99.90
20827;DHT22;10574;52.508;13.236;2022-08-19T07:31:52;21.90;99.90
20827;DHT22;10574;52.508;13.236;2022-08-19T07:34:22;21.90;99.90
20827;DHT22;10574;52.508;13.236;2022-08-19T07:36:51;21.80;99.90
20827;DHT22;10574;52.508;13.236;2022-08-19T07:39:26;21.80;99.90
20827;DHT22;10574;52.508;13.236;2022-08-19T07:41:49;21.80;99.90
20827;DHT22;10574;52.508;13.236;2022-08-19T07:44:20;21.80;99.90
20827;DHT22;10574;52.508;13.236;2022-08-19T07:46:52;21.70;99.90
20827;DHT22;10574;52.508;13.236;2022-08-19T07:49:20;21.80;99.90
20827;DHT22;10574;52.508;13.236;2022-08-19T07:51:54;21.80;99.90
20827;DHT22;10574;52.508;13.236;2022-08-19T07:54:24;21.70;99.90
20827;DHT22;10574;52.508;13.236;2022-08-19T07:56:52;21.80;99.90
20827;DHT22;10574;52.508;13.236;2022-08-19T07:59:20;21.90;99.90
20827;DHT22;10574;52.508;13.236;2022-08-19T08:01:49;21.90;99.90
20827;DHT22;10574;52.508;13.236;2022-08-19T08:04:18;21.90;99.90
20827;DHT22;10574;52.508;13.236;2022-08-19T08:07:07;21.90;99.90
20827;DHT22;10574;52.508;13.236;2022-08-19T08:09:53;21.90;99.90
20827;DHT22;10574;52.508;13.236;2022-08-19T08:12:30;22.00;99.90
20827;DHT22;10574;52.508;13.236;2022-08-19T08:14:59;22.00;99.90
20827;DHT22;10574;52.508;13.236;2022-08-19T08:17:31;22.00;99.90
20827;DHT22;10574;52.508;13.236;2022-08-19T08:19:59;22.00;99.90
20827;DHT22;10574;52.508;13.236;2022-08-19T08:22:27;22.00;99.90
20827;DHT22;10574;52.508;13.236;2022-08-19T08:25:09;22.10;99.90
20827;DHT22;10574;52.508;13.236;2022-08-19T08:27:41;22.00;99.90
20827;DHT22;10574;52.508;13.236;2022-08-19T08:30:17;22.10;99.90
20827;DHT22;10574;52.508;13.236;2022-08-19T08:32:41;22.10;99.90
20827;DHT22;10574;52.508;13.236;2022-08-19T08:35:12;22.10;99.90
20827;DHT22;10574;52.508;13.236;2022-08-19T08:37:40;22.10;99.90
20827;DHT22;10574;52.508;13.236;2022-08-19T08:40:29;22.20;99.90
20827;DHT22;10574;52.508;13.236;2022-08-19T08:45:35;22.10;99.90
20827;DHT22;10574;52.508;13.236;2022-08-19T08:48:16;22.10;99.90
20827;DHT22;10574;52.508;13.236;2022-08-19T08:50:35;22.00;99.90
20827;DHT22;10574;52.508;13.236;2022-08-19T08:53:04;21.90;99.90
20827;DHT22;10574;52.508;13.236;2022-08-19T08:55:34;21.80;99.90
20827;DHT22;10574;52.508;13.236;2022-08-19T08:58:04;21.80;99.90
20827;DHT22;10574;52.508;13.236;2022-08-19T09:00:38;21.80;99.90
20827;DHT22;10574;52.508;13.236;2022-08-19T09:03:16;21.70;99.90
20827;DHT22;10574;52.508;13.236;2022-08-19T09:05:45;21.70;99.90
20827;DHT22;10574;52.508;13.236;2022-08-19T09:08:21;21.70;99.90
20827;DHT22;10574;52.508;13.236;2022-08-19T09:10:54;21.70;99.90
20827;DHT22;10574;52.508;13.236;2022-08-19T09:16:07;21.70;99.90
20827;DHT22;10574;52.508;13.236;2022-08-19T09:18:48;21.60;99.90
20827;DHT22;10574;52.508;13.236;2022-08-19T09:21:16;21.60;99.90
20827;DHT22;10574;52.508;13.236;2022-08-19T09:23:44;21.70;99.90
20827;DHT22;10574;52.508;13.236;2022-08-19T09:26:14;21.70;99.90
20827;DHT22;10574;52.508;13.236;2022-08-19T09:28:44;21.70;99.90
20827;DHT22;10574;52.508;13.236;2022-08-19T09:31:14;21.70;99.90
20827;DHT22;10574;52.508;13.236;2022-08-19T09:33:42;21.70;99.90
20827;DHT22;10574;52.508;13.236;2022-08-19T09:36:13;21.80;99.90
20827;DHT22;10574;52.508;13.236;2022-08-19T09:38:41;21.80;99.90
20827;DHT22;10574;52.508;13.236;2022-08-19T09:41:20;22.00;99.90
20827;DHT22;10574;52.508;13.236;2022-08-19T09:43:45;22.00;99.90
20827;DHT22;10574;52.508;13.236;2022-08-19T09:46:13;22.10;99.90
20827;DHT22;10574;52.508;13.236;2022-08-19T09:48:42;22.20;99.90
20827;DHT22;10574;52.508;13.236;2022-08-19T09:51:13;22.20;99.90
20827;DHT22;10574;52.508;13.236;2022-08-19T09:53:46;22.30;99.90
20827;DHT22;10574;52.508;13.236;2022-08-19T09:56:16;22.30;99.90
20827;DHT22;10574;52.508;13.236;2022-08-19T09:58:43;22.30;99.90
20827;DHT22;10574;52.508;13.236;2022-08-19T10:01:18;22.30;99.90
20827;DHT22;10574;52.508;13.236;2022-08-19T10:03:53;22.30;99.90
20827;DHT22;10574;52.508;13.236;2022-08-19T10:06:18;22.30;99.90
20827;DHT22;10574;52.508;13.236;2022-08-19T10:08:46;22.20;99.90
20827;DHT22;10574;52.508;13.236;2022-08-19T10:11:15;22.20;99.90
20827;DHT22;10574;52.508;13.236;2022-08-19T10:13:44;22.10;99.90
20827;DHT22;10574;52.508;13.236;2022-08-19T10:16:14;22.20;99.90
20827;DHT22;10574;52.508;13.236;2022-08-19T10:18:43;22.30;99.90
20827;DHT22;10574;52.508;13.236;2022-08-19T10:21:13;22.30;99.90
20827;DHT22;10574;52.508;13.236;2022-08-19T10:23:44;22.40;99.90
20827;DHT22;10574;52.508;13.236;2022-08-19T10:26:15;22.50;99.90
20827;DHT22;10574;52.508;13.236;2022-08-19T10:28:43;22.60;99.90
20827;DHT22;10574;52.508;13.236;2022-08-19T10:31:13;22.70;99.90
20827;DHT22;10574;52.508;13.236;2022-08-19T10:33:41;22.90;99.90
20827;DHT22;10574;52.508;13.236;2022-08-19T10:36:15;23.00;99.90
20827;DHT22;10574;52.508;13.236;2022-08-19T10:38:50;23.10;99.90
20827;DHT22;10574;52.508;13.236;2022-08-19T10:41:22;23.20;99.90
20827;DHT22;10574;52.508;13.236;2022-08-19T10:43:45;23.20;99.90
20827;DHT22;10574;52.508;13.236;2022-08-19T10:46:15;23.20;99.90
20827;DHT22;10574;52.508;13.236;2022-08-19T10:48:44;23.10;99.90
20827;DHT22;10574;52.508;13.236;2022-08-19T10:51:12;23.00;99.90
20827;DHT22;10574;52.508;13.236;2022-08-19T10:53:58;22.80;99.90
20827;DHT22;10574;52.508;13.236;2022-08-19T10:56:27;22.60;99.90
20827;DHT22;10574;52.508;13.236;2022-08-19T10:59:13;22.60;99.90
20827;DHT22;10574;52.508;13.236;2022-08-19T11:01:42;22.60;99.90
20827;DHT22;10574;52.508;13.236;2022-08-19T11:04:11;22.60;99.90
20827;DHT22;10574;52.508;13.236;2022-08-19T11:06:43;22.60;99.90
20827;DHT22;10574;52.508;13.236;2022-08-19T11:09:17;22.60;99.90
20827;DHT22;10574;52.508;13.236;2022-08-19T11:11:45;22.50;99.90
20827;DHT22;10574;52.508;13.236;2022-08-19T11:14:16;22.60;99.90
20827;DHT22;10574;52.508;13.236;2022-08-19T11:16:44;22.60;99.90
20827;DHT22;10574;52.508;13.236;2022-08-19T11:19:13;22.70;99.90
20827;DHT22;10574;52.508;13.236;2022-08-19T11:21:45;22.80;99.90
20827;DHT22;10574;52.508;13.236;2022-08-19T11:24:15;22.70;99.90
20827;DHT22;10574;52.508;13.236;2022-08-19T11:26:44;22.70;99.90
20827;DHT22;10574;52.508;13.236;2022-08-19T11:29:13;22.70;99.90
20827;DHT22;10574;52.508;13.236;2022-08-19T11:31:44;22.80;99.90
20827;DHT22;10574;52.508;13.236;2022-08-19T11:34:15;22.80;99.90
20827;DHT22;10574;52.508;13.236;2022-08-19T11:36:44;22.80;99.90
20827;DHT22;10574;52.508;13.236;2022-08-19T11:39:15;22.70;99.90
20827;DHT22;10574;52.508;13.236;2022-08-19T11:41:43;22.60;99.90
20827;DHT22;10574;52.508;13.236;2022-08-19T11:44:11;22.40;99.90
20827;DHT22;10574;52.508;13.236;2022-08-19T11:46:41;22.50;99.90
20827;DHT22;10574;52.508;13.236;2022-08-19T11:49:11;22.40;99.90
20827;DHT22;10574;52.508;13.236;2022-08-19T11:51:39;22.50;99.90
20827;DHT22;10574;52.508;13.236;2022-08-19T11:54:09;22.50;99.90
20827;DHT22;10574;52.508;13.236;2022-08-19T11:56:38;22.50;99.90
20827;DHT22;10574;52.508;13.236;2022-08-19T11:59:06;22.50;99.90
20827;DHT22;10574;52.508;13.236;2022-08-19T12:01:34;22.50;99.90
20827;DHT22;10574;52.508;13.236;2022-08-19T12:04:02;22.40;99.90
20827;DHT22;10574;52.508;13.236;2022-08-19T12:06:32;22.40;99.90
20827;DHT22;10574;52.508;13.236;2022-08-19T12:09:03;22.40;99.90
20827;DHT22;10574;52.508;13.236;2022-08-19T12:11:32;22.50;99.90
20827;DHT22;10574;52.508;13.236;2022-08-19T12:14:00;22.40;99.90
20827;DHT22;10574;52.508;13.236;2022-08-19T12:16:30;22.40;99.90
20827;DHT22;10574;52.508;13.236;2022-08-19T12:18:59;22.50;99.90
20827;DHT22;10574;52.508;13.236;2022-08-19T12:21:28;22.60;99.90
20827;DHT22;10574;52.508;13.236;2022-08-19T12:23:57;22.50;99.90
20827;DHT22;10574;52.508;13.236;2022-08-19T12:26:27;22.60;99.90
20827;DHT22;10574;52.508;13.236;2022-08-19T12:28:55;22.60;99.90
20827;DHT22;10574;52.508;13.236;2022-08-19T12:31:26;22.60;99.90
20827;DHT22;10574;52.508;13.236;2022-08-19T12:33:54;22.60;99.90
20827;DHT22;10574;52.508;13.236;2022-08-19T12:36:23;22.60;99.90
20827;DHT22;10574;52.508;13.236;2022-08-19T12:38:52;22.60;99.90
20827;DHT22;10574;52.508;13.236;2022-08-19T12:41:20;22.60;99.90
20827;DHT22;10574;52.508;13.236;2022-08-19T12:43:49;22.70;99.90
20827;DHT22;10574;52.508;13.236;2022-08-19T12:46:18;22.50;99.90
20827;DHT22;10574;52.508;13.236;2022-08-19T12:48:46;22.60;99.90
20827;DHT22;10574;52.508;13.236;2022-08-19T12:51:16;22.50;99.90
20827;DHT22;10574;52.508;13.236;2022-08-19T12:53:46;22.50;99.90
20827;DHT22;10574;52.508;13.236;2022-08-19T12:56:14;22.60;99.90
20827;DHT22;10574;52.508;13.236;2022-08-19T12:58:43;22.70;99.90
20827;DHT22;10574;52.508;13.236;2022-08-19T13:01:13;22.70;99.90
20827;DHT22;10574;52.508;13.236;2022-08-19T13:03:44;22.70;99.90
20827;DHT22;10574;52.508;13.236;2022-08-19T13:06:12;22.80;99.90
20827;DHT22;10574;52.508;13.236;2022-08-19T13:08:41;22.90;99.90
20827;DHT22;10574;52.508;13.236;2022-08-19T13:11:15;23.00;99.90
20827;DHT22;10574;52.508;13.236;2022-08-19T13:13:46;23.10;99.90
20827;DHT22;10574;52.508;13.236;2022-08-19T13:16:14;23.10;99.90
20827;DHT22;10574;52.508;13.236;2022-08-19T13:18:43;23.30;99.90
20827;DHT22;10574;52.508;13.236;2022-08-19T13:21:13;23.30;99.90
20827;DHT22;10574;52.508;13.236;2022-08-19T13:23:41;23.40;99.90
20827;DHT22;10574;52.508;13.236;2022-08-19T13:26:10;23.50;99.90
20827;DHT22;10574;52.508;13.236;2022-08-19T13:28:40;23.50;99.90
20827;DHT22;10574;52.508;13.236;2022-08-19T13:31:29;23.60;99.90
20827;DHT22;10574;52.508;13.236;2022-08-19T13:34:15;23.50;99.90
20827;DHT22;10574;52.508;13.236;2022-08-19T13:36:43;23.40;99.90
20827;DHT22;10574;52.508;13.236;2022-08-19T13:39:11;23.30;99.90
20827;DHT22;10574;52.508;13.236;2022-08-19T13:41:43;23.20;99.90
20827;DHT22;10574;52.508;13.236;2022-08-19T13:44:09;23.30;99.90
20827;DHT22;10574;52.508;13.236;2022-08-19T13:46:38;23.30;99.90
20827;DHT22;10574;52.508;13.236;2022-08-19T13:49:05;23.30;99.90
20827;DHT22;10574;52.508;13.236;2022-08-19T13:51:33;23.30;99.90
20827;DHT22;10574;52.508;13.236;2022-08-19T13:54:01;23.40;99.90
20827;DHT22;10574;52.508;13.236;2022-08-19T13:56:28;23.40;99.90
20827;DHT22;10574;52.508;13.236;2022-08-19T13:58:56;23.50;99.90
20827;DHT22;10574;52.508;13.236;2022-08-19T14:01:24;23.60;99.90
20827;DHT22;10574;52.508;13.236;2022-08-19T14:03:53;23.70;99.90
20827;DHT22;10574;52.508;13.236;2022-08-19T14:06:20;23.70;99.90
20827;DHT22;10574;52.508;13.236;2022-08-19T14:08:49;23.70;99.90
20827;DHT22;10574;52.508;13.236;2022-08-19T14:11:19;23.60;99.90
20827;DHT22;10574;52.508;13.236;2022-08-19T14:13:49;23.60;99.90
20827;DHT22;10574;52.508;13.236;2022-08-19T14:16:17;23.70;99.90
20827;DHT22;10574;52.508;13.236;2022-08-19T14:18:44;23.70;99.90
20827;DHT22;10574;52.508;13.236;2022-08-19T14:21:18;23.70;99.90
20827;DHT22;10574;52.508;13.236;2022-08-19T14:23:46;23.70;99.90
20827;DHT22;10574;52.508;13.236;2022-08-19T14:26:16;23.50;99.90
20827;DHT22;10574;52.508;13.236;2022-08-19T14:28:44;23.40;99.90
20827;DHT22;10574;52.508;13.236;2022-08-19T14:31:14;23.30;99.90
20827;DHT22;10574;52.508;13.236;2022-08-19T14:33:44;23.30;99.90
20827;DHT22;10574;52.508;13.236;2022-08-19T14:36:12;23.30;99.90
20827;DHT22;10574;52.508;13.236;2022-08-19T14:38:40;23.30;99.90
20827;DHT22;10574;52.508;13.236;2022-08-19T14:41:19;23.20;99.90
20827;DHT22;10574;52.508;13.236;2022-08-19T14:43:49;23.20;99.90
20827;DHT22;10574;52.508;13.236;2022-08-19T14:46:23;23.20;99.90
20827;DHT22;10574;52.508;13.236;2022-08-19T14:48:52;23.30;99.90
20827;DHT22;10574;52.508;13.236;2022-08-19T14:51:22;23.30;99.90
20827;DHT22;10574;52.508;13.236;2022-08-19T14:53:50;23.30;99.90
20827;DHT22;10574;52.508;13.236;2022-08-19T14:56:22;23.30;99.90
20827;DHT22;10574;52.508;13.236;2022-08-19T14:58:49;23.20;99.90
20827;DHT22;10574;52.508;13.236;2022-08-19T15:01:19;23.20;99.90
20827;DHT22;10574;52.508;13.236;2022-08-19T15:03:48;23.20;99.90
20827;DHT22;10574;52.508;13.236;2022-08-19T15:06:18;23.20;99.90
20827;DHT22;10574;52.508;13.236;2022-08-19T15:08:46;23.20;99.90
20827;DHT22;10574;52.508;13.236;2022-08-19T15:11:16;23.10;99.90
20827;DHT22;10574;52.508;13.236;2022-08-19T15:13:46;23.00;99.90
20827;DHT22;10574;52.508;13.236;2022-08-19T15:16:14;22.90;99.90
20827;DHT22;10574;52.508;13.236;2022-08-19T15:18:43;22.80;99.90
20827;DHT22;10574;52.508;13.236;2022-08-19T15:21:12;22.80;99.90
20827;DHT22;10574;52.508;13.236;2022-08-19T15:23:41;22.80;99.90
20827;DHT22;10574;52.508;13.236;2022-08-19T15:26:08;22.70;99.90
20827;DHT22;10574;52.508;13.236;2022-08-19T15:28:37;22.60;99.90
20827;DHT22;10574;52.508;13.236;2022-08-19T15:31:04;22.60;99.90
20827;DHT22;10574;52.508;13.236;2022-08-19T15:33:34;22.50;99.90
20827;DHT22;10574;52.508;13.236;2022-08-19T15:36:05;22.50;99.90
20827;DHT22;10574;52.508;13.236;2022-08-19T15:38:34;22.40;99.90